createdAt,value
2019-04-28T00:00:37.285Z,5.30
2019-04-28T00:01:37.465Z,5.20
2019-04-28T00:02:37.650Z,4.90
2019-04-28T00:03:37.842Z,4.70
2019-04-28T00:04:38.027Z,5.00
2019-04-28T00:05:38.218Z,4.80
2019-04-28T00:06:38.399Z,5.20
2019-04-28T00:07:38.585Z,5.20
2019-04-28T00:08:38.765Z,4.80
2019-04-28T00:09:38.952Z,4.60
2019-04-28T00:10:39.141Z,5.20
2019-04-28T00:11:39.324Z,5.00
2019-04-28T00:12:41.277Z,5.20
2019-04-28T00:13:41.284Z,5.60
2019-04-28T00:14:41.652Z,6.00
2019-04-28T00:15:41.704Z,5.90
2019-04-28T00:16:41.182Z,5.30
2019-04-28T00:17:41.972Z,5.40
2019-04-28T00:18:41.555Z,5.10
2019-04-28T00:19:41.014Z,5.60
2019-04-28T00:20:40.976Z,5.20
2019-04-28T00:21:41.544Z,5.60
2019-04-28T00:22:41.887Z,5.30
2019-04-28T00:23:42.275Z,5.00
2019-04-28T00:24:41.769Z,4.80
2019-04-28T00:25:43.563Z,6.00
2019-04-28T00:26:42.085Z,5.40
2019-04-28T00:27:42.267Z,5.30
2019-04-28T00:28:42.453Z,5.20
2019-04-28T00:29:46.048Z,5.60
2019-04-28T00:30:42.818Z,5.20
2019-04-28T00:31:43.000Z,5.50
2019-04-28T00:32:43.188Z,5.90
2019-04-28T00:33:43.542Z,5.20
2019-04-28T00:34:43.561Z,5.10
2019-04-28T00:35:43.748Z,5.10
2019-04-28T00:36:43.935Z,5.60
2019-04-28T00:37:44.119Z,5.70
2019-04-28T00:38:44.302Z,5.50
2019-04-28T00:39:44.486Z,5.70
2019-04-28T00:40:44.675Z,5.50
2019-04-28T00:41:44.867Z,5.70
2019-04-28T00:42:45.047Z,5.70
2019-04-28T00:43:45.228Z,5.60
2019-04-28T00:44:45.415Z,6.10
2019-04-28T00:45:45.595Z,6.20
2019-04-28T00:46:45.827Z,6.10
2019-04-28T00:47:45.957Z,6.00
2019-04-28T00:48:46.142Z,5.60
2019-04-28T00:49:46.331Z,6.00
2019-04-28T00:50:46.509Z,5.50
2019-04-28T00:51:46.693Z,5.80
2019-04-28T00:52:46.876Z,6.40
2019-04-28T00:53:47.059Z,5.70
2019-04-28T00:54:47.258Z,5.90
2019-04-28T00:55:47.434Z,6.00
2019-04-28T00:56:47.623Z,5.70
2019-04-28T00:57:47.806Z,6.10
2019-04-28T00:58:47.985Z,5.80
2019-04-28T00:59:55.076Z,6.40
2019-04-28T01:00:48.355Z,5.60
2019-04-28T01:01:48.540Z,6.10
2019-04-28T01:02:48.723Z,6.30
2019-04-28T01:03:48.901Z,6.20
2019-04-28T01:04:49.086Z,5.80
2019-04-28T01:05:50.845Z,5.80
2019-04-28T01:06:49.462Z,5.50
2019-04-28T01:07:51.081Z,6.10
2019-04-28T01:08:51.521Z,6.50
2019-04-28T01:09:51.658Z,5.20
2019-04-28T01:10:50.834Z,5.80
2019-04-28T01:11:51.131Z,5.90
2019-04-28T01:12:51.005Z,5.70
2019-04-28T01:13:51.827Z,5.70
2019-04-28T01:14:54.516Z,6.10
2019-04-28T01:15:51.123Z,6.00
2019-04-28T01:16:51.563Z,5.70
2019-04-28T01:17:51.486Z,6.10
2019-04-28T01:18:51.672Z,5.50
2019-04-28T01:19:51.854Z,6.10
2019-04-28T01:20:52.043Z,5.50
2019-04-28T01:21:52.227Z,5.90
2019-04-28T01:22:52.412Z,5.60
2019-04-28T01:23:52.592Z,5.70
2019-04-28T01:24:52.798Z,5.50
2019-04-28T01:25:52.972Z,6.20
2019-04-28T01:26:53.162Z,6.00
2019-04-28T01:27:53.342Z,5.90
2019-04-28T01:28:53.524Z,5.50
2019-04-28T01:30:05.486Z,5.70
2019-04-28T01:30:53.892Z,4.90
2019-04-28T01:31:54.076Z,5.30
2019-04-28T01:32:54.261Z,5.20
2019-04-28T01:33:54.448Z,5.20
2019-04-28T01:34:54.635Z,5.30
2019-04-28T01:35:54.822Z,5.50
2019-04-28T01:36:55.011Z,5.50
2019-04-28T01:37:55.229Z,5.70
2019-04-28T01:38:55.414Z,6.20
2019-04-28T01:39:55.593Z,5.60
2019-04-28T01:40:55.779Z,5.60
2019-04-28T01:41:55.960Z,5.80
2019-04-28T01:42:56.148Z,5.60
2019-04-28T01:43:56.329Z,5.30
2019-04-28T01:44:56.529Z,5.50
2019-04-28T01:45:56.709Z,5.50
2019-04-28T01:46:56.902Z,5.30
2019-04-28T01:47:59.813Z,5.40
2019-04-28T01:48:57.271Z,5.10
2019-04-28T01:49:57.452Z,4.90
2019-04-28T01:50:57.637Z,4.70
2019-04-28T01:51:57.830Z,4.90
2019-04-28T01:52:59.723Z,5.00
2019-04-28T01:54:00.076Z,6.00
2019-04-28T01:55:00.300Z,5.70
2019-04-28T01:55:59.547Z,4.90
2019-04-28T01:57:01.063Z,4.90
2019-04-28T01:57:59.597Z,5.10
2019-04-28T01:59:00.300Z,5.60
2019-04-28T01:59:59.973Z,5.30
2019-04-28T02:00:59.723Z,5.50
2019-04-28T02:02:00.287Z,5.50
2019-04-28T02:03:00.166Z,5.10
2019-04-28T02:04:00.326Z,5.10
2019-04-28T02:05:00.203Z,5.00
2019-04-28T02:06:00.400Z,5.50
2019-04-28T02:07:00.566Z,5.40
2019-04-28T02:08:00.755Z,5.00
2019-04-28T02:09:01.023Z,5.50
2019-04-28T02:10:01.131Z,5.30
2019-04-28T02:11:01.315Z,5.30
2019-04-28T02:12:01.499Z,5.40
2019-04-28T02:13:01.680Z,4.90
2019-04-28T02:14:01.870Z,5.00
2019-04-28T02:15:02.079Z,5.20
2019-04-28T02:16:02.231Z,5.40
2019-04-28T02:17:02.418Z,5.40
2019-04-28T02:18:02.599Z,5.20
2019-04-28T02:19:02.794Z,5.40
2019-04-28T02:20:02.978Z,4.70
2019-04-28T02:21:03.171Z,4.50
2019-04-28T02:23:46.058Z,5.20
2019-04-28T02:24:46.245Z,5.20
2019-04-28T02:25:46.423Z,4.80
2019-04-28T02:26:46.617Z,4.80
2019-04-28T02:27:46.795Z,4.90
2019-04-28T02:28:46.979Z,5.80
2019-04-28T02:29:47.161Z,4.80
2019-04-28T02:30:50.357Z,5.00
2019-04-28T02:31:47.532Z,5.00
2019-04-28T02:32:47.713Z,4.80
2019-04-28T02:33:50.510Z,5.30
2019-04-28T02:34:49.865Z,5.10
2019-04-28T02:35:50.948Z,4.60
2019-04-28T02:36:50.641Z,5.20
2019-04-28T02:37:50.325Z,5.40
2019-04-28T02:38:51.356Z,5.10
2019-04-28T02:39:50.516Z,4.90
2019-04-28T02:40:50.331Z,5.20
2019-04-28T02:41:51.225Z,4.90
2019-04-28T02:42:51.877Z,4.70
2019-04-28T02:43:51.004Z,5.20
2019-04-28T02:44:50.518Z,4.80
2019-04-28T02:45:51.071Z,5.60
2019-04-28T02:46:50.819Z,4.90
2019-04-28T02:47:52.283Z,4.50
2019-04-28T02:48:53.943Z,5.00
2019-04-28T02:49:50.820Z,5.30
2019-04-28T02:50:51.180Z,5.50
2019-04-28T02:51:51.189Z,5.00
2019-04-28T02:52:52.064Z,5.10
2019-04-28T02:53:51.583Z,5.10
2019-04-28T02:54:51.754Z,5.00
2019-04-28T02:55:51.931Z,4.90
2019-04-28T02:56:52.118Z,5.10
2019-04-28T02:57:52.300Z,5.30
2019-04-28T02:58:52.483Z,4.90
2019-04-28T02:59:52.671Z,4.80
2019-04-28T03:01:08.982Z,4.90
2019-04-28T03:01:53.039Z,4.90
2019-04-28T03:02:53.211Z,4.60
2019-04-28T03:03:53.405Z,4.30
2019-04-28T03:04:53.577Z,4.60
2019-04-28T03:05:53.760Z,5.10
2019-04-28T03:06:53.943Z,5.30
2019-04-28T03:07:54.137Z,4.60
2019-04-28T03:08:54.319Z,4.90
2019-04-28T03:09:54.499Z,5.10
2019-04-28T03:10:54.685Z,4.40
2019-04-28T03:11:54.869Z,4.40
2019-04-28T03:12:55.049Z,4.90
2019-04-28T03:13:55.235Z,4.50
2019-04-28T03:14:55.423Z,4.20
2019-04-28T03:15:55.610Z,4.50
2019-04-28T03:16:55.796Z,4.60
2019-04-28T03:17:55.982Z,4.70
2019-04-28T03:18:56.162Z,4.80
2019-04-28T03:19:56.346Z,4.00
2019-04-28T03:20:56.528Z,4.50
2019-04-28T03:21:56.707Z,4.70
2019-04-28T03:22:56.893Z,3.90
2019-04-28T03:23:57.076Z,4.40
2019-04-28T03:24:57.258Z,4.40
2019-04-28T03:25:57.449Z,4.40
2019-04-28T03:26:57.628Z,4.30
2019-04-28T03:28:00.515Z,4.50
2019-04-28T03:29:00.795Z,4.50
2019-04-28T03:30:00.713Z,4.60
2019-04-28T03:31:03.305Z,4.90
2019-04-28T03:32:18.320Z,4.40
2019-04-28T03:33:04.926Z,4.20
2019-04-28T03:34:03.401Z,4.70
2019-04-28T03:35:03.211Z,5.10
2019-04-28T03:36:07.037Z,4.90
2019-04-28T03:37:00.338Z,3.90
2019-04-28T03:38:01.210Z,4.20
2019-04-28T03:39:00.682Z,4.50
2019-04-28T03:40:00.629Z,4.10
2019-04-28T03:41:01.017Z,4.60
2019-04-28T03:42:00.365Z,4.10
2019-04-28T03:43:03.194Z,4.30
2019-04-28T03:44:00.754Z,4.60
2019-04-28T03:45:01.169Z,4.60
2019-04-28T03:46:03.577Z,4.60
2019-04-28T03:47:03.096Z,5.30
2019-04-28T03:48:01.482Z,4.40
2019-04-28T03:49:01.664Z,4.60
2019-04-28T03:50:01.852Z,4.20
2019-04-28T03:51:02.041Z,4.00
2019-04-28T03:52:02.202Z,4.80
2019-04-28T03:53:02.390Z,4.00
2019-04-28T03:54:03.146Z,4.30
2019-04-28T03:55:02.752Z,4.70
2019-04-28T03:56:02.942Z,4.00
2019-04-28T03:57:03.132Z,4.40
2019-04-28T03:58:03.317Z,4.60
2019-04-28T03:59:03.519Z,4.20
2019-04-28T04:00:03.698Z,4.10
2019-04-28T04:01:03.898Z,4.40
2019-04-28T04:02:04.070Z,3.90
2019-04-28T04:03:04.253Z,4.10
2019-04-28T04:04:04.434Z,4.70
2019-04-28T04:05:04.625Z,4.30
2019-04-28T04:06:04.802Z,4.30
2019-04-28T04:07:04.986Z,4.50
2019-04-28T04:08:05.168Z,4.70
2019-04-28T04:09:05.359Z,4.10
2019-04-28T04:10:05.539Z,4.50
2019-04-28T04:11:05.722Z,4.50
2019-04-28T04:12:05.917Z,4.10
2019-04-28T04:13:06.100Z,4.30
2019-04-28T04:14:06.283Z,4.70
2019-04-28T04:15:06.478Z,4.70
2019-04-28T04:16:06.654Z,4.20
2019-04-28T04:17:06.836Z,3.90
2019-04-28T04:18:07.017Z,4.10
2019-04-28T04:19:07.205Z,4.90
2019-04-28T04:20:07.386Z,4.50
2019-04-28T04:21:07.563Z,4.30
2019-04-28T04:22:09.975Z,4.50
2019-04-28T04:23:11.067Z,4.30
2019-04-28T04:24:10.667Z,4.70
2019-04-28T04:25:10.214Z,4.20
2019-04-28T04:26:11.456Z,4.70
2019-04-28T04:27:10.757Z,3.90
2019-04-28T04:28:10.515Z,3.60
2019-04-28T04:29:10.151Z,4.40
2019-04-28T04:30:10.878Z,5.00
2019-04-28T04:31:10.486Z,4.10
2019-04-28T04:32:18.129Z,4.10
2019-04-28T04:33:11.080Z,4.90
2019-04-28T04:34:10.695Z,4.40
2019-04-28T04:35:10.546Z,3.70
2019-04-28T04:36:11.623Z,4.30
2019-04-28T04:37:12.618Z,4.10
2019-04-28T04:38:10.687Z,4.50
2019-04-28T04:39:11.012Z,4.40
2019-04-28T04:40:13.279Z,4.10
2019-04-28T04:41:11.473Z,4.60
2019-04-28T04:42:11.417Z,4.50
2019-04-28T04:43:11.597Z,4.30
2019-04-28T04:44:11.782Z,4.30
2019-04-28T04:45:11.985Z,4.60
2019-04-28T04:46:14.191Z,4.30
2019-04-28T04:47:12.342Z,4.40
2019-04-28T04:48:12.526Z,4.90
2019-04-28T04:49:12.710Z,4.50
2019-04-28T04:50:13.251Z,4.30
2019-04-28T04:51:13.076Z,5.00
2019-04-28T04:52:13.256Z,4.70
2019-04-28T04:53:13.435Z,5.50
2019-04-28T04:54:13.627Z,4.60
2019-04-28T04:55:13.802Z,5.40
2019-04-28T04:56:13.988Z,5.10
2019-04-28T04:57:14.174Z,5.10
2019-04-28T04:58:14.353Z,7.40
2019-04-28T04:59:14.533Z,6.30
2019-04-28T05:00:14.721Z,6.70
2019-04-28T05:01:14.902Z,6.80
2019-04-28T05:02:26.718Z,6.50
2019-04-28T05:03:15.276Z,6.20
2019-04-28T05:04:15.458Z,6.10
2019-04-28T05:05:15.642Z,5.80
2019-04-28T05:06:15.828Z,6.10
2019-04-28T05:07:16.011Z,6.50
2019-04-28T05:08:16.196Z,7.20
2019-04-28T05:09:16.377Z,8.50
2019-04-28T05:10:16.562Z,8.90
2019-04-28T05:11:16.743Z,7.80
2019-04-28T05:12:16.929Z,7.90
2019-04-28T05:13:17.106Z,7.30
2019-04-28T05:14:17.291Z,6.60
2019-04-28T05:15:17.477Z,5.60
2019-04-28T05:16:19.674Z,6.40
2019-04-28T05:17:17.842Z,5.80
2019-04-28T05:18:19.878Z,6.40
2019-04-28T05:19:19.457Z,6.10
2019-04-28T05:20:20.050Z,5.50
2019-04-28T05:21:19.218Z,5.20
2019-04-28T05:22:20.178Z,5.50
2019-04-28T05:23:19.646Z,5.00
2019-04-28T05:24:19.994Z,4.80
2019-04-28T05:25:20.430Z,4.80
2019-04-28T05:26:21.191Z,5.10
2019-04-28T05:27:24.025Z,4.80
2019-04-28T05:28:19.871Z,4.50
2019-04-28T05:29:26.487Z,4.70
2019-04-28T05:30:20.511Z,4.50
2019-04-28T05:31:24.210Z,3.90
2019-04-28T05:32:20.647Z,3.90
2019-04-28T05:33:23.656Z,4.00
2019-04-28T05:34:23.922Z,4.80
2019-04-28T05:35:22.020Z,4.10
2019-04-28T05:36:21.362Z,4.30
2019-04-28T05:37:21.551Z,4.80
2019-04-28T05:38:21.742Z,4.10
2019-04-28T05:39:21.926Z,5.20
2019-04-28T05:40:22.113Z,6.00
2019-04-28T05:41:22.300Z,6.60
2019-04-28T05:42:22.487Z,5.20
2019-04-28T05:43:22.670Z,4.80
2019-04-28T05:44:22.844Z,3.80
2019-04-28T05:45:23.034Z,4.40
2019-04-28T05:46:23.220Z,4.00
2019-04-28T05:47:23.414Z,4.20
2019-04-28T05:48:23.599Z,3.60
2019-04-28T05:49:23.785Z,3.80
2019-04-28T05:50:23.975Z,3.90
2019-04-28T05:51:24.158Z,3.80
2019-04-28T05:52:24.343Z,4.40
2019-04-28T05:53:24.528Z,3.70
2019-04-28T05:54:24.716Z,4.50
2019-04-28T05:55:24.908Z,4.40
2019-04-28T05:56:25.091Z,4.40
2019-04-28T05:57:25.268Z,4.30
2019-04-28T05:58:25.466Z,4.10
2019-04-28T05:59:25.652Z,4.40
2019-04-28T06:00:25.839Z,4.30
2019-04-28T06:01:26.029Z,4.60
2019-04-28T06:02:26.213Z,4.70
2019-04-28T06:03:26.394Z,4.00
2019-04-28T06:04:26.579Z,4.00
2019-04-28T06:05:26.771Z,4.80
2019-04-28T06:06:26.961Z,4.20
2019-04-28T06:07:27.144Z,4.20
2019-04-28T06:08:27.341Z,4.30
2019-04-28T06:09:29.416Z,4.30
2019-04-28T06:10:29.802Z,4.50
2019-04-28T06:11:27.899Z,4.30
2019-04-28T06:12:28.098Z,5.00
2019-04-28T06:13:30.169Z,4.20
2019-04-28T06:14:30.055Z,4.80
2019-04-28T06:15:29.478Z,4.10
2019-04-28T06:16:30.437Z,4.30
2019-04-28T06:17:29.554Z,5.10
2019-04-28T06:18:30.796Z,4.20
2019-04-28T06:19:30.167Z,4.20
2019-04-28T06:20:30.360Z,4.50
2019-04-28T06:21:29.784Z,4.70
2019-04-28T06:22:29.971Z,4.30
2019-04-28T06:23:30.148Z,4.50
2019-04-28T06:24:30.352Z,4.30
2019-04-28T06:25:30.535Z,4.70
2019-04-28T06:26:30.735Z,4.60
2019-04-28T06:27:32.635Z,4.20
2019-04-28T06:28:31.110Z,4.60
2019-04-28T06:29:31.305Z,4.80
2019-04-28T06:30:31.479Z,4.40
2019-04-28T06:31:31.671Z,4.20
2019-04-28T06:32:31.860Z,4.30
2019-04-28T06:33:32.052Z,4.50
2019-04-28T06:34:32.279Z,4.90
2019-04-28T06:35:32.435Z,4.50
2019-04-28T06:36:32.626Z,4.70
2019-04-28T06:37:32.814Z,4.30
2019-04-28T06:38:33.001Z,4.00
2019-04-28T06:39:33.185Z,4.00
2019-04-28T06:40:33.391Z,4.20
2019-04-28T06:41:33.588Z,3.90
2019-04-28T06:42:33.804Z,4.30
2019-04-28T06:43:33.991Z,3.90
2019-04-28T06:44:34.196Z,4.00
2019-04-28T06:45:34.382Z,3.40
2019-04-28T06:46:34.565Z,4.70
2019-04-28T06:47:34.765Z,3.50
2019-04-28T06:48:34.958Z,4.00
2019-04-28T06:49:35.152Z,4.30
2019-04-28T06:50:35.339Z,4.10
2019-04-28T06:51:35.519Z,4.00
2019-04-28T06:52:35.709Z,4.40
2019-04-28T06:53:35.896Z,3.70
2019-04-28T06:54:36.089Z,4.20
2019-04-28T06:55:36.275Z,4.10
2019-04-28T06:56:36.478Z,4.10
2019-04-28T06:57:36.663Z,4.40
2019-04-28T06:58:36.851Z,4.30
2019-04-28T06:59:37.038Z,4.20
2019-04-28T07:00:37.225Z,4.00
2019-04-28T07:01:37.422Z,4.50
2019-04-28T07:02:37.623Z,4.30
2019-04-28T07:03:37.818Z,3.60
2019-04-28T07:04:37.999Z,4.20
2019-04-28T07:05:38.186Z,4.00
2019-04-28T07:06:38.374Z,3.80
2019-04-28T07:07:38.577Z,4.60
2019-04-28T07:08:38.759Z,4.10
2019-04-28T07:09:38.954Z,4.60
2019-04-28T07:10:39.143Z,4.50
2019-04-28T07:11:39.331Z,4.10
2019-04-28T07:12:39.518Z,4.00
2019-04-28T07:13:39.703Z,4.40
2019-04-28T07:14:39.892Z,4.40
2019-04-28T07:15:40.077Z,4.90
2019-04-28T07:16:40.270Z,4.30
2019-04-28T07:17:40.505Z,4.70
2019-04-28T07:18:40.656Z,4.60
2019-04-28T07:19:40.839Z,4.40
2019-04-28T07:20:41.050Z,4.10
2019-04-28T07:21:41.238Z,4.30
2019-04-28T07:22:41.427Z,4.50
2019-04-28T07:23:41.616Z,4.50
2019-04-28T07:24:44.689Z,4.60
2019-04-28T07:25:41.982Z,5.40
2019-04-28T07:26:42.175Z,5.30
2019-04-28T07:27:42.357Z,5.20
2019-04-28T07:28:42.540Z,4.50
2019-04-28T07:29:42.731Z,5.40
2019-04-28T07:30:42.916Z,4.50
2019-04-28T07:31:43.102Z,4.50
2019-04-28T07:32:43.291Z,4.80
2019-04-28T07:33:43.475Z,4.90
2019-04-28T07:34:43.675Z,4.90
2019-04-28T07:35:43.857Z,4.80
2019-04-28T07:36:44.050Z,5.10
2019-04-28T07:37:44.234Z,4.40
2019-04-28T07:38:44.420Z,4.50
2019-04-28T07:39:44.607Z,4.60
2019-04-28T07:40:44.792Z,4.10
2019-04-28T07:41:44.987Z,4.60
2019-04-28T07:42:45.176Z,4.80
2019-04-28T07:43:45.359Z,4.50
2019-04-28T07:44:45.542Z,4.40
2019-04-28T07:45:45.734Z,4.20
2019-04-28T07:46:45.931Z,4.50
2019-04-28T07:47:46.146Z,4.70
2019-04-28T07:48:46.310Z,5.30
2019-04-28T07:49:46.497Z,5.40
2019-04-28T07:50:46.690Z,6.50
2019-04-28T07:51:46.882Z,4.80
2019-04-28T07:52:47.072Z,4.40
2019-04-28T07:53:47.264Z,4.70
2019-04-28T07:54:47.450Z,4.60
2019-04-28T07:55:47.647Z,4.60
2019-04-28T07:56:47.831Z,4.80
2019-04-28T07:57:48.024Z,4.30
2019-04-28T07:58:48.205Z,4.60
2019-04-28T07:59:48.395Z,4.30
2019-04-28T08:00:48.889Z,4.40
2019-04-28T08:01:48.766Z,4.80
2019-04-28T08:02:48.950Z,4.50
2019-04-28T08:03:50.035Z,3.90
2019-04-28T08:04:49.331Z,4.10
2019-04-28T08:05:49.553Z,4.90
2019-04-28T08:06:49.746Z,4.60
2019-04-28T08:07:49.927Z,4.70
2019-04-28T08:08:50.114Z,4.60
2019-04-28T08:09:50.313Z,4.80
2019-04-28T08:10:50.503Z,4.30
2019-04-28T08:11:50.679Z,4.60
2019-04-28T08:12:50.886Z,4.60
2019-04-28T08:13:51.076Z,4.00
2019-04-28T08:14:51.265Z,4.90
2019-04-28T08:15:51.480Z,4.80
2019-04-28T08:16:51.667Z,4.60
2019-04-28T08:17:51.844Z,4.40
2019-04-28T08:18:52.038Z,4.20
2019-04-28T08:19:52.251Z,4.50
2019-04-28T08:20:52.432Z,4.10
2019-04-28T08:21:52.626Z,4.30
2019-04-28T08:22:52.821Z,4.80
2019-04-28T08:23:53.013Z,4.90
2019-04-28T08:24:53.204Z,4.40
2019-04-28T08:25:53.412Z,4.40
2019-04-28T08:26:53.601Z,4.50
2019-04-28T08:27:53.798Z,4.10
2019-04-28T08:28:53.990Z,4.10
2019-04-28T08:29:58.768Z,4.40
2019-04-28T08:30:54.369Z,4.10
2019-04-28T08:31:54.560Z,4.20
2019-04-28T08:32:54.791Z,4.00
2019-04-28T08:34:02.145Z,4.30
2019-04-28T08:34:55.653Z,4.90
2019-04-28T08:35:55.342Z,4.10
2019-04-28T08:36:55.528Z,4.60
2019-04-28T08:37:55.726Z,4.20
2019-04-28T08:38:55.918Z,4.30
2019-04-28T08:39:56.107Z,4.40
2019-04-28T08:40:56.303Z,4.20
2019-04-28T08:41:56.491Z,3.70
2019-04-28T08:42:56.685Z,3.90
2019-04-28T08:43:56.882Z,4.50
2019-04-28T08:44:57.071Z,3.80
2019-04-28T08:45:57.263Z,4.30
2019-04-28T08:46:57.458Z,4.50
2019-04-28T08:47:58.091Z,4.30
2019-04-28T08:48:57.855Z,4.20
2019-04-28T08:49:58.046Z,4.00
2019-04-28T08:50:58.244Z,4.70
2019-04-28T08:51:58.440Z,3.90
2019-04-28T08:52:58.639Z,4.30
2019-04-28T08:53:58.876Z,3.90
2019-04-28T08:54:59.068Z,3.50
2019-04-28T08:55:59.281Z,4.20
2019-04-28T08:56:59.474Z,3.60
2019-04-28T08:57:59.668Z,3.80
2019-04-28T08:58:59.877Z,3.90
2019-04-28T09:00:00.056Z,4.50
2019-04-28T09:01:00.259Z,4.40
2019-04-28T09:02:00.451Z,4.40
2019-04-28T09:03:00.644Z,4.00
2019-04-28T09:04:00.842Z,3.90
2019-04-28T09:05:01.036Z,4.30
2019-04-28T09:06:01.509Z,4.00
2019-04-28T09:07:01.439Z,4.30
2019-04-28T09:08:01.625Z,4.10
2019-04-28T09:09:01.835Z,3.70
2019-04-28T09:10:02.029Z,3.60
2019-04-28T09:11:02.235Z,4.30
2019-04-28T09:12:02.433Z,4.00
2019-04-28T09:13:02.689Z,4.00
2019-04-28T09:14:02.829Z,3.50
2019-04-28T09:15:03.030Z,3.80
2019-04-28T09:16:03.221Z,3.40
2019-04-28T09:17:03.418Z,3.90
2019-04-28T09:18:03.619Z,3.40
2019-04-28T09:19:03.820Z,3.60
2019-04-28T09:20:04.021Z,3.30
2019-04-28T09:21:04.216Z,3.70
2019-04-28T09:22:04.414Z,3.60
2019-04-28T09:23:04.612Z,4.20
2019-04-28T09:24:04.821Z,3.90
2019-04-28T09:25:05.017Z,3.40
2019-04-28T09:26:05.203Z,4.10
2019-04-28T09:27:05.407Z,3.70
2019-04-28T09:28:05.600Z,4.10
2019-04-28T09:29:05.811Z,4.20
2019-04-28T09:30:05.997Z,4.20
2019-04-28T09:31:06.191Z,4.60
2019-04-28T09:32:06.385Z,5.30
2019-04-28T09:33:06.578Z,5.10
2019-04-28T09:34:06.774Z,4.60
2019-04-28T09:35:06.971Z,4.80
2019-04-28T09:36:07.152Z,4.70
2019-04-28T09:37:07.351Z,4.30
2019-04-28T09:38:07.541Z,4.10
2019-04-28T09:39:07.732Z,4.40
2019-04-28T09:40:07.931Z,4.80
2019-04-28T09:41:08.121Z,4.70
2019-04-28T09:42:08.311Z,4.30
2019-04-28T09:43:08.505Z,4.00
2019-04-28T09:44:08.690Z,5.10
2019-04-28T09:45:08.883Z,5.70
2019-04-28T09:46:09.073Z,4.80
2019-04-28T09:47:09.266Z,4.50
2019-04-28T09:48:09.454Z,5.40
2019-04-28T09:49:09.645Z,5.10
2019-04-28T09:50:09.837Z,4.60
2019-04-28T09:51:10.022Z,4.50
2019-04-28T09:52:10.226Z,5.50
2019-04-28T09:53:10.410Z,5.20
2019-04-28T09:54:10.597Z,4.40
2019-04-28T09:55:10.813Z,4.30
2019-04-28T09:56:10.998Z,4.40
2019-04-28T09:57:11.175Z,4.30
2019-04-28T09:58:11.365Z,4.30
2019-04-28T09:59:11.546Z,3.80
2019-04-28T10:00:11.744Z,4.20
2019-04-28T10:01:11.931Z,4.20
2019-04-28T10:02:12.121Z,4.20
2019-04-28T10:03:12.309Z,3.90
2019-04-28T10:04:12.506Z,4.20
2019-04-28T10:05:12.693Z,4.20
2019-04-28T10:06:12.886Z,4.30
2019-04-28T10:07:13.077Z,4.10
2019-04-28T10:08:13.281Z,4.60
2019-04-28T10:09:13.475Z,4.30
2019-04-28T10:10:13.663Z,4.20
2019-04-28T10:11:13.864Z,4.40
2019-04-28T10:12:26.347Z,4.70
2019-04-28T10:13:14.247Z,5.00
2019-04-28T10:14:14.438Z,4.30
2019-04-28T10:15:14.623Z,4.80
2019-04-28T10:16:14.812Z,4.70
2019-04-28T10:17:15.022Z,4.10
2019-04-28T10:18:15.219Z,4.60
2019-04-28T10:19:15.406Z,4.40
2019-04-28T10:20:15.596Z,4.60
2019-04-28T10:21:15.785Z,4.80
2019-04-28T10:22:15.969Z,3.60
2019-04-28T10:23:16.157Z,4.50
2019-04-28T10:24:16.349Z,4.10
2019-04-28T10:25:16.540Z,4.60
2019-04-28T10:26:16.727Z,3.70
2019-04-28T10:27:16.920Z,4.70
2019-04-28T10:28:17.110Z,4.30
2019-04-28T10:29:17.306Z,3.90
2019-04-28T10:30:17.484Z,3.90
2019-04-28T10:31:17.673Z,4.20
2019-04-28T10:32:17.860Z,3.90
2019-04-28T10:33:18.050Z,4.40
2019-04-28T10:34:18.236Z,4.50
2019-04-28T10:35:18.422Z,4.40
2019-04-28T10:36:18.656Z,4.00
2019-04-28T10:37:18.812Z,4.10
2019-04-28T10:38:19.019Z,4.00
2019-04-28T10:39:19.204Z,3.80
2019-04-28T10:40:19.393Z,4.10
2019-04-28T10:41:19.577Z,3.90
2019-04-28T10:42:19.754Z,4.10
2019-04-28T10:43:19.945Z,4.20
2019-04-28T10:44:20.131Z,4.90
2019-04-28T10:45:20.323Z,4.40
2019-04-28T10:46:20.506Z,4.50
2019-04-28T10:47:20.699Z,4.30
2019-04-28T10:48:20.879Z,4.30
2019-04-28T10:49:21.068Z,4.20
2019-04-28T10:50:21.264Z,4.30
2019-04-28T10:51:21.470Z,4.10
2019-04-28T10:52:21.659Z,3.60
2019-04-28T10:53:21.846Z,4.00
2019-04-28T10:54:22.033Z,4.20
2019-04-28T10:55:22.219Z,4.90
2019-04-28T10:56:22.406Z,4.50
2019-04-28T10:57:22.660Z,4.70
2019-04-28T10:58:22.782Z,4.00
2019-04-28T10:59:22.985Z,4.90
2019-04-28T11:00:23.172Z,4.00
2019-04-28T11:01:23.365Z,4.00
2019-04-28T11:02:23.556Z,4.10
2019-04-28T11:03:23.742Z,4.00
2019-04-28T11:04:23.932Z,4.10
2019-04-28T11:05:24.117Z,3.80
2019-04-28T11:06:24.307Z,4.20
2019-04-28T11:07:24.493Z,3.30
2019-04-28T11:08:24.684Z,4.00
2019-04-28T11:09:30.716Z,3.90
2019-04-28T11:10:25.059Z,3.80
2019-04-28T11:11:25.255Z,3.90
2019-04-28T11:12:25.443Z,4.00
2019-04-28T11:13:25.632Z,4.50
2019-04-28T11:14:25.813Z,3.70
2019-04-28T11:15:26.014Z,3.50
2019-04-28T11:16:26.196Z,4.20
2019-04-28T11:17:26.380Z,3.80
2019-04-28T11:18:26.572Z,3.50
2019-04-28T11:19:26.761Z,3.90
2019-04-28T11:20:26.961Z,3.80
2019-04-28T11:21:27.150Z,3.90
2019-04-28T11:22:27.331Z,3.80
2019-04-28T11:23:27.528Z,3.50
2019-04-28T11:24:27.719Z,4.30
2019-04-28T11:25:27.912Z,3.60
2019-04-28T11:26:28.099Z,3.60
2019-04-28T11:27:28.294Z,3.90
2019-04-28T11:28:28.483Z,4.20
2019-04-28T11:29:28.689Z,4.20
2019-04-28T11:30:28.865Z,3.90
2019-04-28T11:31:29.096Z,4.30
2019-04-28T11:32:29.234Z,3.70
2019-04-28T11:33:29.420Z,3.80
2019-04-28T11:34:29.621Z,4.10
2019-04-28T11:35:29.813Z,3.20
2019-04-28T11:36:29.997Z,4.30
2019-04-28T11:37:30.182Z,4.70
2019-04-28T11:38:30.372Z,3.70
2019-04-28T11:39:30.559Z,4.10
2019-04-28T11:40:30.744Z,4.50
2019-04-28T11:41:30.935Z,4.10
2019-04-28T11:42:31.126Z,4.00
2019-04-28T11:43:31.314Z,4.10
2019-04-28T11:44:31.508Z,3.80
2019-04-28T11:45:31.697Z,4.30
2019-04-28T11:46:31.882Z,3.80
2019-04-28T11:47:32.083Z,3.50
2019-04-28T11:48:32.262Z,4.00
2019-04-28T11:49:32.457Z,3.60
2019-04-28T11:50:32.655Z,4.20
2019-04-28T11:51:32.837Z,4.00
2019-04-28T11:52:33.034Z,4.00
2019-04-28T11:53:33.233Z,3.80
2019-04-28T11:54:33.427Z,3.50
2019-04-28T11:55:33.615Z,3.90
2019-04-28T11:56:41.111Z,3.50
2019-04-28T11:57:34.006Z,3.60
2019-04-28T11:58:34.207Z,3.70
2019-04-28T11:59:34.407Z,4.20
2019-04-28T12:00:34.591Z,4.20
2019-04-28T12:01:34.779Z,4.00
2019-04-28T12:02:34.961Z,3.80
2019-04-28T12:03:35.146Z,4.00
2019-04-28T12:04:35.341Z,4.00
2019-04-28T12:05:38.223Z,3.70
2019-04-28T12:06:35.715Z,3.90
2019-04-28T12:07:35.902Z,3.80
2019-04-28T12:08:36.089Z,4.40
2019-04-28T12:09:36.278Z,4.50
2019-04-28T12:10:36.460Z,4.90
2019-04-28T12:11:36.657Z,4.20
2019-04-28T12:12:36.848Z,4.40
2019-04-28T12:13:37.033Z,3.60
2019-04-28T12:14:37.220Z,3.60
2019-04-28T12:15:37.411Z,3.30
2019-04-28T12:16:37.595Z,3.50
2019-04-28T12:17:37.788Z,4.00
2019-04-28T12:18:37.977Z,3.90
2019-04-28T12:19:38.173Z,3.10
2019-04-28T12:20:38.366Z,4.00
2019-04-28T12:21:38.555Z,3.80
2019-04-28T12:22:38.747Z,3.80
2019-04-28T12:23:38.940Z,3.80
2019-04-28T12:24:39.118Z,3.60
2019-04-28T12:25:39.307Z,3.40
2019-04-28T12:26:39.500Z,4.60
2019-04-28T12:27:39.685Z,3.80
2019-04-28T12:28:39.872Z,3.40
2019-04-28T12:29:40.055Z,3.00
2019-04-28T12:30:40.251Z,3.30
2019-04-28T12:31:40.444Z,3.50
2019-04-28T12:32:40.628Z,3.80
2019-04-28T12:33:40.811Z,3.90
2019-04-28T12:34:41.003Z,3.10
2019-04-28T12:35:47.536Z,3.50
2019-04-28T12:36:41.387Z,3.40
2019-04-28T12:37:41.564Z,3.10
2019-04-28T12:38:41.750Z,3.40
2019-04-28T12:39:41.974Z,3.60
2019-04-28T12:40:42.144Z,4.20
2019-04-28T12:41:42.337Z,3.30
2019-04-28T12:42:42.522Z,3.30
2019-04-28T12:43:42.718Z,3.20
2019-04-28T12:44:42.909Z,3.20
2019-04-28T12:45:43.098Z,4.20
2019-04-28T12:46:43.280Z,4.20
2019-04-28T12:47:43.468Z,3.60
2019-04-28T12:48:43.686Z,3.70
2019-04-28T12:49:43.862Z,3.40
2019-04-28T12:50:44.051Z,3.40
2019-04-28T12:51:44.250Z,3.30
2019-04-28T12:52:44.455Z,4.00
2019-04-28T12:53:44.658Z,3.10
2019-04-28T12:54:44.854Z,3.30
2019-04-28T12:55:45.044Z,3.20
2019-04-28T12:56:45.256Z,3.00
2019-04-28T12:57:45.454Z,3.50
2019-04-28T12:58:45.656Z,3.20
2019-04-28T12:59:45.848Z,3.00
2019-04-28T13:00:46.041Z,3.20
2019-04-28T13:01:46.230Z,2.90
2019-04-28T13:02:46.421Z,3.20
2019-04-28T13:03:46.613Z,3.40
2019-04-28T13:04:46.799Z,2.70
2019-04-28T13:06:00.114Z,3.80
2019-04-28T13:06:47.177Z,3.40
2019-04-28T13:07:47.371Z,3.10
2019-04-28T13:08:47.563Z,2.80
2019-04-28T13:09:47.757Z,2.90
2019-04-28T13:10:47.946Z,2.50
2019-04-28T13:11:48.160Z,2.90
2019-04-28T13:12:48.332Z,3.10
2019-04-28T13:13:48.519Z,2.50
2019-04-28T13:14:48.708Z,2.80
2019-04-28T13:15:48.896Z,2.90
2019-04-28T13:16:49.082Z,2.80
2019-04-28T13:17:49.286Z,3.30
2019-04-28T13:18:49.471Z,2.80
2019-04-28T13:19:49.669Z,2.90
2019-04-28T13:20:49.852Z,2.70
2019-04-28T13:21:50.036Z,2.70
2019-04-28T13:22:50.234Z,3.10